sensor_id;sensor_type;location;lat;lon;timestamp;temperature;humidity
53978;DHT22;39886;47.984;-1.586;2022-08-21T00:01:51;24.80;60.50
53978;DHT22;39886;47.984;-1.586;2022-08-21T00:04:17;24.80;60.50
53978;DHT22;39886;47.984;-1.586;2022-08-21T00:06:43;24.80;60.50
53978;DHT22;39886;47.984;-1.586;2022-08-21T00:09:09;24.80;60.50
53978;DHT22;39886;47.984;-1.586;2022-08-21T00:11:37;24.80;60.50
53978;DHT22;39886;47.984;-1.586;2022-08-21T00:14:05;24.80;60.50
53978;DHT22;39886;47.984;-1.586;2022-08-21T00:16:31;24.80;60.50
53978;DHT22;39886;47.984;-1.586;2022-08-21T00:18:57;24.80;60.60
53978;DHT22;39886;47.984;-1.586;2022-08-21T00:21:23;24.80;60.60
53978;DHT22;39886;47.984;-1.586;2022-08-21T00:23:51;24.80;60.60
53978;DHT22;39886;47.984;-1.586;2022-08-21T00:26:16;24.70;60.60
53978;DHT22;39886;47.984;-1.586;2022-08-21T00:28:42;24.80;60.60
53978;DHT22;39886;47.984;-1.586;2022-08-21T00:31:08;24.70;60.60
53978;DHT22;39886;47.984;-1.586;2022-08-21T00:33:34;24.70;60.60
53978;DHT22;39886;47.984;-1.586;2022-08-21T00:36:00;24.70;60.60
53978;DHT22;39886;47.984;-1.586;2022-08-21T00:38:26;24.70;60.60
53978;DHT22;39886;47.984;-1.586;2022-08-21T00:40:56;24.70;60.60
53978;DHT22;39886;47.984;-1.586;2022-08-21T00:43:30;24.70;60.70
53978;DHT22;39886;47.984;-1.586;2022-08-21T00:45:56;24.70;60.70
53978;DHT22;39886;47.984;-1.586;2022-08-21T00:48:23;24.70;60.70
53978;DHT22;39886;47.984;-1.586;2022-08-21T00:51:14;24.60;60.60
53978;DHT22;39886;47.984;-1.586;2022-08-21T00:53:43;24.60;60.60
53978;DHT22;39886;47.984;-1.586;2022-08-21T00:56:11;24.60;60.70
53978;DHT22;39886;47.984;-1.586;2022-08-21T00:58:39;24.60;60.70
53978;DHT22;39886;47.984;-1.586;2022-08-21T01:01:08;24.60;60.70
53978;DHT22;39886;47.984;-1.586;2022-08-21T01:03:35;24.60;60.70
53978;DHT22;39886;47.984;-1.586;2022-08-21T01:06:01;24.60;61.10
53978;DHT22;39886;47.984;-1.586;2022-08-21T01:08:28;24.60;60.70
53978;DHT22;39886;47.984;-1.586;2022-08-21T01:10:55;24.60;60.70
53978;DHT22;39886;47.984;-1.586;2022-08-21T01:13:23;24.60;60.70
53978;DHT22;39886;47.984;-1.586;2022-08-21T01:15:51;24.60;60.70
53978;DHT22;39886;47.984;-1.586;2022-08-21T01:18:19;24.60;60.70
53978;DHT22;39886;47.984;-1.586;2022-08-21T01:23:34;24.60;60.80
53978;DHT22;39886;47.984;-1.586;2022-08-21T01:26:00;24.50;60.70
53978;DHT22;39886;47.984;-1.586;2022-08-21T01:28:26;24.60;60.80
53978;DHT22;39886;47.984;-1.586;2022-08-21T01:30:55;24.60;60.80
53978;DHT22;39886;47.984;-1.586;2022-08-21T01:33:24;24.50;60.80
53978;DHT22;39886;47.984;-1.586;2022-08-21T01:35:50;24.50;60.80
53978;DHT22;39886;47.984;-1.586;2022-08-21T01:38:16;24.50;60.80
53978;DHT22;39886;47.984;-1.586;2022-08-21T01:40:43;24.50;60.80
53978;DHT22;39886;47.984;-1.586;2022-08-21T01:43:09;24.50;60.80
53978;DHT22;39886;47.984;-1.586;2022-08-21T01:45:35;24.50;60.80
53978;DHT22;39886;47.984;-1.586;2022-08-21T01:48:01;24.50;60.90
53978;DHT22;39886;47.984;-1.586;2022-08-21T01:50:28;24.50;60.90
53978;DHT22;39886;47.984;-1.586;2022-08-21T01:52:53;24.50;60.90
53978;DHT22;39886;47.984;-1.586;2022-08-21T01:55:20;24.50;60.90
53978;DHT22;39886;47.984;-1.586;2022-08-21T01:57:47;24.50;60.90
53978;DHT22;39886;47.984;-1.586;2022-08-21T02:00:16;24.40;60.80
53978;DHT22;39886;47.984;-1.586;2022-08-21T02:02:42;24.50;60.90
53978;DHT22;39886;47.984;-1.586;2022-08-21T02:05:11;24.50;60.90
53978;DHT22;39886;47.984;-1.586;2022-08-21T02:07:42;24.40;60.90
53978;DHT22;39886;47.984;-1.586;2022-08-21T02:10:10;24.40;60.90
53978;DHT22;39886;47.984;-1.586;2022-08-21T02:12:35;24.40;60.90
53978;DHT22;39886;47.984;-1.586;2022-08-21T02:15:03;24.40;60.90
53978;DHT22;39886;47.984;-1.586;2022-08-21T02:17:38;24.40;60.90
53978;DHT22;39886;47.984;-1.586;2022-08-21T02:20:04;24.40;61.00
53978;DHT22;39886;47.984;-1.586;2022-08-21T02:22:30;24.40;60.90
53978;DHT22;39886;47.984;-1.586;2022-08-21T02:24:56;24.40;60.90
53978;DHT22;39886;47.984;-1.586;2022-08-21T02:27:23;24.40;61.00
53978;DHT22;39886;47.984;-1.586;2022-08-21T02:29:48;24.40;61.00
53978;DHT22;39886;47.984;-1.586;2022-08-21T02:32:14;24.40;61.00
53978;DHT22;39886;47.984;-1.586;2022-08-21T02:34:40;24.40;61.00
53978;DHT22;39886;47.984;-1.586;2022-08-21T02:37:06;24.30;61.00
53978;DHT22;39886;47.984;-1.586;2022-08-21T02:39:31;24.30;61.00
53978;DHT22;39886;47.984;-1.586;2022-08-21T02:41:57;24.30;61.00
53978;DHT22;39886;47.984;-1.586;2022-08-21T02:44:23;24.40;61.00
53978;DHT22;39886;47.984;-1.586;2022-08-21T02:46:48;24.30;61.00
53978;DHT22;39886;47.984;-1.586;2022-08-21T02:49:14;24.30;61.00
53978;DHT22;39886;47.984;-1.586;2022-08-21T02:51:40;24.30;61.00
53978;DHT22;39886;47.984;-1.586;2022-08-21T02:54:06;24.30;61.00
53978;DHT22;39886;47.984;-1.586;2022-08-21T02:56:32;24.30;61.10
53978;DHT22;39886;47.984;-1.586;2022-08-21T02:58:58;24.30;61.10
53978;DHT22;39886;47.984;-1.586;2022-08-21T03:01:23;24.30;61.10
53978;DHT22;39886;47.984;-1.586;2022-08-21T03:03:50;24.30;61.10
53978;DHT22;39886;47.984;-1.586;2022-08-21T03:06:17;24.20;61.00
53978;DHT22;39886;47.984;-1.586;2022-08-21T03:08:44;24.20;61.10
53978;DHT22;39886;47.984;-1.586;2022-08-21T03:11:11;24.20;61.10
53978;DHT22;39886;47.984;-1.586;2022-08-21T03:13:37;24.20;61.10
53978;DHT22;39886;47.984;-1.586;2022-08-21T03:16:04;24.20;61.10
53978;DHT22;39886;47.984;-1.586;2022-08-21T03:18:31;24.20;61.10
53978;DHT22;39886;47.984;-1.586;2022-08-21T03:20:57;24.20;61.20
53978;DHT22;39886;47.984;-1.586;2022-08-21T03:23:22;24.20;61.20
53978;DHT22;39886;47.984;-1.586;2022-08-21T03:25:48;24.20;61.20
53978;DHT22;39886;47.984;-1.586;2022-08-21T03:28:19;24.20;61.20
53978;DHT22;39886;47.984;-1.586;2022-08-21T03:30:46;24.10;61.20
53978;DHT22;39886;47.984;-1.586;2022-08-21T03:33:13;24.20;61.20
53978;DHT22;39886;47.984;-1.586;2022-08-21T03:35:40;24.10;61.20
53978;DHT22;39886;47.984;-1.586;2022-08-21T03:38:07;24.10;61.20
53978;DHT22;39886;47.984;-1.586;2022-08-21T03:40:33;24.10;61.20
53978;DHT22;39886;47.984;-1.586;2022-08-21T03:42:58;24.20;61.20
53978;DHT22;39886;47.984;-1.586;2022-08-21T03:45:24;24.20;61.20
53978;DHT22;39886;47.984;-1.586;2022-08-21T03:47:56;24.10;61.20
53978;DHT22;39886;47.984;-1.586;2022-08-21T03:50:24;24.10;61.20
53978;DHT22;39886;47.984;-1.586;2022-08-21T03:52:50;24.10;61.20
53978;DHT22;39886;47.984;-1.586;2022-08-21T03:55:16;24.10;61.20
53978;DHT22;39886;47.984;-1.586;2022-08-21T03:57:42;24.10;61.20
53978;DHT22;39886;47.984;-1.586;2022-08-21T04:00:09;24.10;61.30
53978;DHT22;39886;47.984;-1.586;2022-08-21T04:02:39;24.10;61.30
53978;DHT22;39886;47.984;-1.586;2022-08-21T04:05:06;24.10;61.30
53978;DHT22;39886;47.984;-1.586;2022-08-21T04:07:33;24.10;61.30
53978;DHT22;39886;47.984;-1.586;2022-08-21T04:09:58;24.10;61.30
53978;DHT22;39886;47.984;-1.586;2022-08-21T04:12:24;24.10;61.30
53978;DHT22;39886;47.984;-1.586;2022-08-21T04:14:50;24.10;61.30
53978;DHT22;39886;47.984;-1.586;2022-08-21T04:17:18;24.10;61.30
53978;DHT22;39886;47.984;-1.586;2022-08-21T04:19:44;24.10;61.30
53978;DHT22;39886;47.984;-1.586;2022-08-21T04:22:12;24.00;61.30
53978;DHT22;39886;47.984;-1.586;2022-08-21T04:24:38;24.10;61.30
53978;DHT22;39886;47.984;-1.586;2022-08-21T04:27:04;24.10;61.30
53978;DHT22;39886;47.984;-1.586;2022-08-21T04:29:30;24.00;61.30
53978;DHT22;39886;47.984;-1.586;2022-08-21T04:31:55;24.10;61.40
53978;DHT22;39886;47.984;-1.586;2022-08-21T04:34:21;24.00;61.30
53978;DHT22;39886;47.984;-1.586;2022-08-21T04:36:47;24.00;61.40
53978;DHT22;39886;47.984;-1.586;2022-08-21T04:39:12;24.00;61.40
53978;DHT22;39886;47.984;-1.586;2022-08-21T04:41:38;24.00;61.40
53978;DHT22;39886;47.984;-1.586;2022-08-21T04:44:04;24.00;61.40
53978;DHT22;39886;47.984;-1.586;2022-08-21T04:46:30;24.00;61.40
53978;DHT22;39886;47.984;-1.586;2022-08-21T04:48:56;24.00;61.40
53978;DHT22;39886;47.984;-1.586;2022-08-21T04:51:30;24.00;61.40
53978;DHT22;39886;47.984;-1.586;2022-08-21T04:53:59;24.00;61.40
53978;DHT22;39886;47.984;-1.586;2022-08-21T04:56:35;24.00;61.40
53978;DHT22;39886;47.984;-1.586;2022-08-21T04:59:05;24.00;61.40
53978;DHT22;39886;47.984;-1.586;2022-08-21T05:01:34;24.00;61.40
53978;DHT22;39886;47.984;-1.586;2022-08-21T05:04:02;24.00;61.40
53978;DHT22;39886;47.984;-1.586;2022-08-21T05:06:33;24.00;61.40
53978;DHT22;39886;47.984;-1.586;2022-08-21T05:09:00;24.00;61.40
53978;DHT22;39886;47.984;-1.586;2022-08-21T05:11:27;24.00;61.40
53978;DHT22;39886;47.984;-1.586;2022-08-21T05:13:53;24.00;61.40
53978;DHT22;39886;47.984;-1.586;2022-08-21T05:16:19;24.00;61.50
53978;DHT22;39886;47.984;-1.586;2022-08-21T05:18:45;24.00;61.50
53978;DHT22;39886;47.984;-1.586;2022-08-21T05:21:10;24.00;61.50
53978;DHT22;39886;47.984;-1.586;2022-08-21T05:23:36;24.00;61.40
53978;DHT22;39886;47.984;-1.586;2022-08-21T05:26:02;23.90;61.40
53978;DHT22;39886;47.984;-1.586;2022-08-21T05:28:30;24.00;61.50
53978;DHT22;39886;47.984;-1.586;2022-08-21T05:30:56;24.00;61.50
53978;DHT22;39886;47.984;-1.586;2022-08-21T05:33:22;23.90;61.40
53978;DHT22;39886;47.984;-1.586;2022-08-21T05:35:52;23.90;61.40
53978;DHT22;39886;47.984;-1.586;2022-08-21T05:38:22;23.90;61.50
53978;DHT22;39886;47.984;-1.586;2022-08-21T05:40:48;23.90;61.40
53978;DHT22;39886;47.984;-1.586;2022-08-21T05:43:14;23.90;61.50
53978;DHT22;39886;47.984;-1.586;2022-08-21T05:45:41;23.90;61.50
53978;DHT22;39886;47.984;-1.586;2022-08-21T05:48:08;23.90;61.50
53978;DHT22;39886;47.984;-1.586;2022-08-21T05:50:34;23.90;61.50
53978;DHT22;39886;47.984;-1.586;2022-08-21T05:53:00;23.90;61.50
53978;DHT22;39886;47.984;-1.586;2022-08-21T05:55:26;23.90;61.40
53978;DHT22;39886;47.984;-1.586;2022-08-21T05:57:52;23.90;61.50
53978;DHT22;39886;47.984;-1.586;2022-08-21T06:00:18;23.90;61.40
53978;DHT22;39886;47.984;-1.586;2022-08-21T06:02:43;23.90;61.50
53978;DHT22;39886;47.984;-1.586;2022-08-21T06:05:09;23.90;61.50
53978;DHT22;39886;47.984;-1.586;2022-08-21T06:07:35;23.90;61.50
53978;DHT22;39886;47.984;-1.586;2022-08-21T06:10:01;23.90;61.50
53978;DHT22;39886;47.984;-1.586;2022-08-21T06:12:26;23.90;61.50
53978;DHT22;39886;47.984;-1.586;2022-08-21T06:14:52;23.80;61.40
53978;DHT22;39886;47.984;-1.586;2022-08-21T06:17:19;23.90;61.50
53978;DHT22;39886;47.984;-1.586;2022-08-21T06:19:50;23.90;61.50
53978;DHT22;39886;47.984;-1.586;2022-08-21T06:22:16;23.80;61.40
53978;DHT22;39886;47.984;-1.586;2022-08-21T06:24:41;23.90;61.50
53978;DHT22;39886;47.984;-1.586;2022-08-21T06:27:07;23.90;61.50
53978;DHT22;39886;47.984;-1.586;2022-08-21T06:29:34;23.90;61.50
53978;DHT22;39886;47.984;-1.586;2022-08-21T06:32:00;23.90;61.50
53978;DHT22;39886;47.984;-1.586;2022-08-21T06:34:27;23.90;61.50
53978;DHT22;39886;47.984;-1.586;2022-08-21T06:36:52;23.90;61.50
53978;DHT22;39886;47.984;-1.586;2022-08-21T06:39:18;23.90;61.50
53978;DHT22;39886;47.984;-1.586;2022-08-21T06:41:44;23.80;61.40
53978;DHT22;39886;47.984;-1.586;2022-08-21T06:44:10;23.90;61.50
53978;DHT22;39886;47.984;-1.586;2022-08-21T06:46:36;23.90;61.40
53978;DHT22;39886;47.984;-1.586;2022-08-21T06:49:02;23.90;61.50
53978;DHT22;39886;47.984;-1.586;2022-08-21T06:51:28;23.90;61.40
53978;DHT22;39886;47.984;-1.586;2022-08-21T06:53:54;23.90;61.50
53978;DHT22;39886;47.984;-1.586;2022-08-21T06:56:20;23.90;61.40
53978;DHT22;39886;47.984;-1.586;2022-08-21T06:58:46;23.90;61.40
53978;DHT22;39886;47.984;-1.586;2022-08-21T07:01:12;23.90;61.40
53978;DHT22;39886;47.984;-1.586;2022-08-21T07:03:40;23.90;61.40
53978;DHT22;39886;47.984;-1.586;2022-08-21T07:06:08;23.90;61.40
53978;DHT22;39886;47.984;-1.586;2022-08-21T07:08:34;23.90;61.40
53978;DHT22;39886;47.984;-1.586;2022-08-21T07:11:03;23.90;61.40
53978;DHT22;39886;47.984;-1.586;2022-08-21T07:13:30;23.90;61.40
53978;DHT22;39886;47.984;-1.586;2022-08-21T07:15:56;23.90;61.40
53978;DHT22;39886;47.984;-1.586;2022-08-21T07:18:21;23.90;61.40
53978;DHT22;39886;47.984;-1.586;2022-08-21T07:20:47;24.00;61.40
53978;DHT22;39886;47.984;-1.586;2022-08-21T07:23:23;24.00;61.40
53978;DHT22;39886;47.984;-1.586;2022-08-21T07:25:50;24.00;61.40
53978;DHT22;39886;47.984;-1.586;2022-08-21T07:28:15;23.90;61.40
53978;DHT22;39886;47.984;-1.586;2022-08-21T07:30:41;23.90;61.30
53978;DHT22;39886;47.984;-1.586;2022-08-21T07:33:07;24.00;61.40
53978;DHT22;39886;47.984;-1.586;2022-08-21T07:35:33;24.00;61.30
53978;DHT22;39886;47.984;-1.586;2022-08-21T07:37:59;24.00;61.30
53978;DHT22;39886;47.984;-1.586;2022-08-21T07:40:25;24.00;61.30
53978;DHT22;39886;47.984;-1.586;2022-08-21T07:42:51;24.00;61.30
53978;DHT22;39886;47.984;-1.586;2022-08-21T07:45:21;24.00;61.30
53978;DHT22;39886;47.984;-1.586;2022-08-21T07:47:50;24.00;61.30
53978;DHT22;39886;47.984;-1.586;2022-08-21T07:50:16;24.00;61.20
53978;DHT22;39886;47.984;-1.586;2022-08-21T07:52:43;24.00;61.20
53978;DHT22;39886;47.984;-1.586;2022-08-21T07:55:15;24.00;61.20
53978;DHT22;39886;47.984;-1.586;2022-08-21T07:57:41;24.00;61.20
53978;DHT22;39886;47.984;-1.586;2022-08-21T08:00:11;24.00;61.20
53978;DHT22;39886;47.984;-1.586;2022-08-21T08:02:37;24.00;61.20
53978;DHT22;39886;47.984;-1.586;2022-08-21T08:05:04;24.00;61.20
53978;DHT22;39886;47.984;-1.586;2022-08-21T08:07:30;24.00;61.20
53978;DHT22;39886;47.984;-1.586;2022-08-21T08:13:01;24.00;61.10
53978;DHT22;39886;47.984;-1.586;2022-08-21T08:15:27;24.00;61.10
53978;DHT22;39886;47.984;-1.586;2022-08-21T08:17:54;24.10;61.20
53978;DHT22;39886;47.984;-1.586;2022-08-21T08:20:20;24.10;61.10
53978;DHT22;39886;47.984;-1.586;2022-08-21T08:22:48;24.10;61.10
53978;DHT22;39886;47.984;-1.586;2022-08-21T08:25:16;24.10;61.10
53978;DHT22;39886;47.984;-1.586;2022-08-21T08:27:42;24.10;61.10
53978;DHT22;39886;47.984;-1.586;2022-08-21T08:30:11;24.10;61.10
53978;DHT22;39886;47.984;-1.586;2022-08-21T08:32:38;24.10;61.00
53978;DHT22;39886;47.984;-1.586;2022-08-21T08:35:05;24.10;61.00
53978;DHT22;39886;47.984;-1.586;2022-08-21T08:37:32;24.10;61.00
53978;DHT22;39886;47.984;-1.586;2022-08-21T08:39:58;24.20;61.00
53978;DHT22;39886;47.984;-1.586;2022-08-21T08:42:32;24.10;60.90
53978;DHT22;39886;47.984;-1.586;2022-08-21T08:45:08;24.10;60.90
53978;DHT22;39886;47.984;-1.586;2022-08-21T08:47:40;24.20;60.90
53978;DHT22;39886;47.984;-1.586;2022-08-21T08:50:09;24.20;60.90
53978;DHT22;39886;47.984;-1.586;2022-08-21T08:52:41;24.20;60.90
53978;DHT22;39886;47.984;-1.586;2022-08-21T08:57:36;24.30;61.00
53978;DHT22;39886;47.984;-1.586;2022-08-21T09:00:09;24.20;60.90
53978;DHT22;39886;47.984;-1.586;2022-08-21T09:02:39;24.30;60.90
53978;DHT22;39886;47.984;-1.586;2022-08-21T09:05:06;24.30;60.80
53978;DHT22;39886;47.984;-1.586;2022-08-21T09:13:33;24.30;60.70
53978;DHT22;39886;47.984;-1.586;2022-08-21T09:22:24;24.40;60.70
53978;DHT22;39886;47.984;-1.586;2022-08-21T09:25:26;24.40;60.70
53978;DHT22;39886;47.984;-1.586;2022-08-21T09:27:53;24.40;60.60
53978;DHT22;39886;47.984;-1.586;2022-08-21T09:30:25;24.40;60.60
53978;DHT22;39886;47.984;-1.586;2022-08-21T09:32:51;24.40;60.50
53978;DHT22;39886;47.984;-1.586;2022-08-21T09:35:20;24.40;60.50
53978;DHT22;39886;47.984;-1.586;2022-08-21T09:37:59;24.40;60.50
53978;DHT22;39886;47.984;-1.586;2022-08-21T09:40:32;24.50;60.40
53978;DHT22;39886;47.984;-1.586;2022-08-21T09:43:18;24.50;60.40
53978;DHT22;39886;47.984;-1.586;2022-08-21T09:45:45;24.50;60.30
53978;DHT22;39886;47.984;-1.586;2022-08-21T09:48:21;24.50;60.30
53978;DHT22;39886;47.984;-1.586;2022-08-21T09:50:48;24.50;60.30
53978;DHT22;39886;47.984;-1.586;2022-08-21T09:53:24;24.50;60.20
53978;DHT22;39886;47.984;-1.586;2022-08-21T09:56:00;24.50;60.20
53978;DHT22;39886;47.984;-1.586;2022-08-21T09:58:48;24.60;60.20
53978;DHT22;39886;47.984;-1.586;2022-08-21T10:01:25;24.60;60.20
53978;DHT22;39886;47.984;-1.586;2022-08-21T10:04:09;24.60;60.10
53978;DHT22;39886;47.984;-1.586;2022-08-21T10:06:36;24.60;60.00
53978;DHT22;39886;47.984;-1.586;2022-08-21T10:09:21;24.60;60.00
53978;DHT22;39886;47.984;-1.586;2022-08-21T10:17:32;24.70;59.90
53978;DHT22;39886;47.984;-1.586;2022-08-21T10:20:17;24.70;60.50
53978;DHT22;39886;47.984;-1.586;2022-08-21T10:25:26;24.70;59.80
53978;DHT22;39886;47.984;-1.586;2022-08-21T10:28:13;24.80;59.80
53978;DHT22;39886;47.984;-1.586;2022-08-21T10:30:52;24.70;59.80
53978;DHT22;39886;47.984;-1.586;2022-08-21T10:36:37;24.80;59.80
53978;DHT22;39886;47.984;-1.586;2022-08-21T10:39:32;24.80;59.80
53978;DHT22;39886;47.984;-1.586;2022-08-21T10:44:52;24.80;59.70
53978;DHT22;39886;47.984;-1.586;2022-08-21T10:47:37;24.80;59.60
53978;DHT22;39886;47.984;-1.586;2022-08-21T10:50:35;24.80;59.50
53978;DHT22;39886;47.984;-1.586;2022-08-21T10:53:51;24.90;59.50
53978;DHT22;39886;47.984;-1.586;2022-08-21T10:56:33;24.80;59.40
53978;DHT22;39886;47.984;-1.586;2022-08-21T10:59:18;24.90;59.50
53978;DHT22;39886;47.984;-1.586;2022-08-21T11:02:13;24.90;59.50
53978;DHT22;39886;47.984;-1.586;2022-08-21T11:07:57;25.00;59.40
53978;DHT22;39886;47.984;-1.586;2022-08-21T11:10:28;25.00;59.40
53978;DHT22;39886;47.984;-1.586;2022-08-21T11:13:17;25.00;59.40
53978;DHT22;39886;47.984;-1.586;2022-08-21T11:16:26;25.00;59.30
53978;DHT22;39886;47.984;-1.586;2022-08-21T11:18:55;25.00;60.00
53978;DHT22;39886;47.984;-1.586;2022-08-21T11:24:21;25.00;59.30
53978;DHT22;39886;47.984;-1.586;2022-08-21T11:27:09;25.00;59.30
53978;DHT22;39886;47.984;-1.586;2022-08-21T11:29:41;25.00;59.30
53978;DHT22;39886;47.984;-1.586;2022-08-21T11:35:32;25.00;59.30
53978;DHT22;39886;47.984;-1.586;2022-08-21T11:46:39;25.00;59.30
53978;DHT22;39886;47.984;-1.586;2022-08-21T11:51:50;25.00;59.30
53978;DHT22;39886;47.984;-1.586;2022-08-21T11:54:38;25.10;59.40
53978;DHT22;39886;47.984;-1.586;2022-08-21T11:57:14;25.10;59.30
53978;DHT22;39886;47.984;-1.586;2022-08-21T12:02:24;25.10;59.30
53978;DHT22;39886;47.984;-1.586;2022-08-21T12:04:56;25.10;59.30
53978;DHT22;39886;47.984;-1.586;2022-08-21T12:07:40;25.10;59.30
53978;DHT22;39886;47.984;-1.586;2022-08-21T12:10:09;25.10;59.30
53978;DHT22;39886;47.984;-1.586;2022-08-21T12:13:09;25.10;59.30
53978;DHT22;39886;47.984;-1.586;2022-08-21T12:16:04;25.10;59.30
53978;DHT22;39886;47.984;-1.586;2022-08-21T12:18:48;25.10;59.40
53978;DHT22;39886;47.984;-1.586;2022-08-21T12:21:34;25.10;59.40
53978;DHT22;39886;47.984;-1.586;2022-08-21T12:24:32;25.10;59.40
53978;DHT22;39886;47.984;-1.586;2022-08-21T12:27:44;25.10;59.40
53978;DHT22;39886;47.984;-1.586;2022-08-21T12:33:28;25.10;59.40
53978;DHT22;39886;47.984;-1.586;2022-08-21T12:36:17;25.10;59.40
53978;DHT22;39886;47.984;-1.586;2022-08-21T12:39:10;25.10;59.40
53978;DHT22;39886;47.984;-1.586;2022-08-21T12:42:06;25.10;59.30
53978;DHT22;39886;47.984;-1.586;2022-08-21T12:44:58;25.10;59.30
53978;DHT22;39886;47.984;-1.586;2022-08-21T12:47:51;25.10;59.30
53978;DHT22;39886;47.984;-1.586;2022-08-21T12:50:48;25.10;59.20
53978;DHT22;39886;47.984;-1.586;2022-08-21T12:53:55;25.10;58.70
53978;DHT22;39886;47.984;-1.586;2022-08-21T12:56:40;25.10;59.30
53978;DHT22;39886;47.984;-1.586;2022-08-21T12:59:26;25.10;59.20
53978;DHT22;39886;47.984;-1.586;2022-08-21T13:02:17;25.10;59.20
53978;DHT22;39886;47.984;-1.586;2022-08-21T13:05:05;25.10;59.20
53978;DHT22;39886;47.984;-1.586;2022-08-21T13:07:50;25.10;59.20
53978;DHT22;39886;47.984;-1.586;2022-08-21T13:10:35;25.10;59.20
53978;DHT22;39886;47.984;-1.586;2022-08-21T13:13:24;25.10;59.20
53978;DHT22;39886;47.984;-1.586;2022-08-21T13:16:10;25.10;59.20
53978;DHT22;39886;47.984;-1.586;2022-08-21T13:18:58;25.10;59.10
53978;DHT22;39886;47.984;-1.586;2022-08-21T13:21:44;25.10;59.10
53978;DHT22;39886;47.984;-1.586;2022-08-21T13:24:34;25.10;59.10
53978;DHT22;39886;47.984;-1.586;2022-08-21T13:27:27;25.10;59.10
53978;DHT22;39886;47.984;-1.586;2022-08-21T13:30:14;25.10;59.10
53978;DHT22;39886;47.984;-1.586;2022-08-21T13:33:03;25.10;59.10
53978;DHT22;39886;47.984;-1.586;2022-08-21T13:38:46;25.10;59.10
53978;DHT22;39886;47.984;-1.586;2022-08-21T13:41:34;25.10;59.10
53978;DHT22;39886;47.984;-1.586;2022-08-21T13:44:18;25.10;59.10
53978;DHT22;39886;47.984;-1.586;2022-08-21T13:46:44;25.10;59.10
53978;DHT22;39886;47.984;-1.586;2022-08-21T13:49:14;25.10;59.10
53978;DHT22;39886;47.984;-1.586;2022-08-21T13:51:41;25.10;59.10
53978;DHT22;39886;47.984;-1.586;2022-08-21T13:54:37;25.10;59.10
53978;DHT22;39886;47.984;-1.586;2022-08-21T13:57:04;25.10;59.20
53978;DHT22;39886;47.984;-1.586;2022-08-21T13:59:35;25.10;59.10
53978;DHT22;39886;47.984;-1.586;2022-08-21T14:02:37;25.10;59.20
53978;DHT22;39886;47.984;-1.586;2022-08-21T14:05:03;25.10;59.20
53978;DHT22;39886;47.984;-1.586;2022-08-21T14:07:39;25.10;59.20
53978;DHT22;39886;47.984;-1.586;2022-08-21T14:10:41;25.10;59.20
53978;DHT22;39886;47.984;-1.586;2022-08-21T14:13:02;25.10;59.20
53978;DHT22;39886;47.984;-1.586;2022-08-21T14:15:30;25.00;59.20
53978;DHT22;39886;47.984;-1.586;2022-08-21T14:18:14;25.10;59.20
53978;DHT22;39886;47.984;-1.586;2022-08-21T14:20:41;25.00;59.20
53978;DHT22;39886;47.984;-1.586;2022-08-21T14:23:07;25.00;59.20
53978;DHT22;39886;47.984;-1.586;2022-08-21T14:25:44;25.10;59.30
53978;DHT22;39886;47.984;-1.586;2022-08-21T14:28:23;25.10;59.30
53978;DHT22;39886;47.984;-1.586;2022-08-21T14:30:51;25.10;59.30
53978;DHT22;39886;47.984;-1.586;2022-08-21T14:33:33;25.00;59.30
53978;DHT22;39886;47.984;-1.586;2022-08-21T14:35:59;25.00;59.30
53978;DHT22;39886;47.984;-1.586;2022-08-21T14:38:27;25.00;59.30
53978;DHT22;39886;47.984;-1.586;2022-08-21T14:40:56;25.00;59.30
53978;DHT22;39886;47.984;-1.586;2022-08-21T14:43:25;25.00;59.30
53978;DHT22;39886;47.984;-1.586;2022-08-21T14:45:51;25.00;59.30
53978;DHT22;39886;47.984;-1.586;2022-08-21T14:48:17;25.00;59.30
53978;DHT22;39886;47.984;-1.586;2022-08-21T14:50:43;25.00;59.40
53978;DHT22;39886;47.984;-1.586;2022-08-21T14:53:09;25.00;59.40
53978;DHT22;39886;47.984;-1.586;2022-08-21T14:55:35;25.00;59.40
53978;DHT22;39886;47.984;-1.586;2022-08-21T14:58:22;25.00;59.40
53978;DHT22;39886;47.984;-1.586;2022-08-21T15:00:49;25.00;59.40
53978;DHT22;39886;47.984;-1.586;2022-08-21T15:03:16;25.00;59.40
53978;DHT22;39886;47.984;-1.586;2022-08-21T15:05:41;25.00;59.40
53978;DHT22;39886;47.984;-1.586;2022-08-21T15:08:07;25.00;59.50
53978;DHT22;39886;47.984;-1.586;2022-08-21T16:14:41;24.90;59.70
53978;DHT22;39886;47.984;-1.586;2022-08-21T16:17:08;24.90;59.80
53978;DHT22;39886;47.984;-1.586;2022-08-21T16:19:34;24.90;59.80
53978;DHT22;39886;47.984;-1.586;2022-08-21T16:22:02;24.90;59.80
53978;DHT22;39886;47.984;-1.586;2022-08-21T16:24:27;24.90;59.80
53978;DHT22;39886;47.984;-1.586;2022-08-21T16:26:53;24.90;59.80
53978;DHT22;39886;47.984;-1.586;2022-08-21T16:29:21;24.90;59.80
53978;DHT22;39886;47.984;-1.586;2022-08-21T16:31:47;24.90;59.80
53978;DHT22;39886;47.984;-1.586;2022-08-21T16:34:18;24.90;59.80
53978;DHT22;39886;47.984;-1.586;2022-08-21T16:36:47;24.90;59.90
53978;DHT22;39886;47.984;-1.586;2022-08-21T16:39:12;24.90;59.90
53978;DHT22;39886;47.984;-1.586;2022-08-21T16:41:38;24.90;59.90
53978;DHT22;39886;47.984;-1.586;2022-08-21T16:44:05;24.90;59.90
53978;DHT22;39886;47.984;-1.586;2022-08-21T16:46:34;24.90;59.90
53978;DHT22;39886;47.984;-1.586;2022-08-21T16:49:02;24.90;59.90
53978;DHT22;39886;47.984;-1.586;2022-08-21T16:51:28;24.90;60.00
53978;DHT22;39886;47.984;-1.586;2022-08-21T16:53:59;24.90;60.00
53978;DHT22;39886;47.984;-1.586;2022-08-21T16:56:25;24.80;59.90
53978;DHT22;39886;47.984;-1.586;2022-08-21T16:58:53;24.80;59.90
53978;DHT22;39886;47.984;-1.586;2022-08-21T17:01:22;24.80;59.90
53978;DHT22;39886;47.984;-1.586;2022-08-21T17:03:49;24.80;60.00
53978;DHT22;39886;47.984;-1.586;2022-08-21T17:06:16;24.80;60.00
53978;DHT22;39886;47.984;-1.586;2022-08-21T17:08:43;24.80;60.00
53978;DHT22;39886;47.984;-1.586;2022-08-21T17:11:26;24.80;60.00
53978;DHT22;39886;47.984;-1.586;2022-08-21T17:13:53;24.80;60.00
53978;DHT22;39886;47.984;-1.586;2022-08-21T17:16:19;24.80;60.00
53978;DHT22;39886;47.984;-1.586;2022-08-21T17:18:45;24.80;60.10
53978;DHT22;39886;47.984;-1.586;2022-08-21T17:21:12;24.80;60.10
53978;DHT22;39886;47.984;-1.586;2022-08-21T17:23:38;24.80;60.10
53978;DHT22;39886;47.984;-1.586;2022-08-21T17:26:05;24.80;60.20
53978;DHT22;39886;47.984;-1.586;2022-08-21T17:28:34;24.80;60.10
53978;DHT22;39886;47.984;-1.586;2022-08-21T17:31:00;24.80;60.20
53978;DHT22;39886;47.984;-1.586;2022-08-21T17:33:30;24.80;60.20
53978;DHT22;39886;47.984;-1.586;2022-08-21T17:35:59;24.80;60.20
53978;DHT22;39886;47.984;-1.586;2022-08-21T17:38:26;24.80;60.20
53978;DHT22;39886;47.984;-1.586;2022-08-21T17:40:52;24.80;60.20
53978;DHT22;39886;47.984;-1.586;2022-08-21T17:43:18;24.80;60.20
53978;DHT22;39886;47.984;-1.586;2022-08-21T17:45:44;24.70;60.20
53978;DHT22;39886;47.984;-1.586;2022-08-21T17:48:10;24.70;60.20